Rechercher aéroport 
image banner adimage banner adimage banner ad
image banner ad

KNSI - San Nicolas Island Nolf

Situé à San Nicolas Island, United States

ICAO - NSI, IATA -

Données fournies par Airmate  

Information générale

Coordonnées: N33°14'23" W119°27'30"
Élévation : 506 feet MSL.
Variation magnétique : 12° East
Voir autres Aéroports à California

Données opérationnelles

Special qualification required
Heure actuelle UTC:
Heure actuelle locale:
Météo
METAR: KNSI 251153Z AUTO 34006KT OVC009 14/12 A2998 RMK AO2 SLP147 T01390117 10144 20139 55003 $
Voir NOTAMs / SUP AIP / TFR affectant cet aéroport [VIEW]
Fréquences de communication: [VIEW]

Pistes:

Identifiant RWYQFULongueur (ft)Largeur (ft)SurfaceLDA (ft)
1210002200OTHER
3010002200OTHER

Coordonnées de l'aéroport

Adresse: San Nicolas Island United States

Vue satellite de KNSI